Saturn — SATURN — position and weather

sailwx.info

Track history (hours):
 
Tides and Currents Weather Stations Pressure Air Temp Water Temp Dewpoint Dewpoint Depression Visibility Wind Speed Wind Dir Waves Ship Positions

Saturn

Last reported at 2017-Nov-17 17:28 UTC. Time now 2017-Nov-17 17:56 UTC.
Position N 44°10' E 028°39'.

Length 12 m.

Type: SAR. MMSI: 264900320.

Date/timePositionNaut miles runAvg speedWind from/ knotsBaromVisibWave heightAir tempDewpointWater temp
2017-Nov-17 17:28N 44°10' E 028°39'0 0.0
2017-Nov-17 16:58N 44°10' E 028°39'0 0.0
2017-Nov-17 16:28N 44°10' E 028°39'0 0.0
2017-Nov-17 15:58N 44°10' E 028°39'0 0.0
2017-Nov-17 15:28N 44°10' E 028°39'0 0.0
2017-Nov-17 14:58N 44°10' E 028°39'0 0.0
2017-Nov-17 14:25N 44°10' E 028°39'0 0.0
2017-Nov-17 13:58N 44°10' E 028°39'0 0.0
2017-Nov-17 13:28N 44°10' E 028°39'0 0.0
2017-Nov-17 12:58N 44°10' E 028°39'0 0.0
2017-Nov-17 12:28N 44°10' E 028°39'0 0.0
2017-Nov-17 11:55N 44°10' E 028°39'0 0.0
2017-Nov-17 11:28N 44°10' E 028°39'2 3.3
2017-Nov-17 11:00N 44°08' E 028°39'2 4.5
2017-Nov-17 10:28N 44°06' E 028°39'0 0.0
2017-Nov-17 09:58N 44°06' E 028°39'0 0.0
2017-Nov-17 09:28N 44°06' E 028°39'0 0.0
2017-Nov-17 09:00N 44°06' E 028°39'0 0.0
2017-Nov-17 08:10N 44°06' E 028°39'1 3.6
2017-Nov-17 08:00N 44°06' E 028°39'3 1.5
2017-Nov-17 06:03N 44°09' E 028°40'0 3.2
2017-Nov-17 06:00N 44°09' E 028°40'1 0.9
2017-Nov-17 05:25N 44°10' E 028°39'0 0.0
2017-Nov-17 04:58N 44°10' E 028°39'0 0.0
2017-Nov-17 04:25N 44°10' E 028°39'0 0.0
2017-Nov-17 03:58N 44°10' E 028°39'0 0.0
2017-Nov-17 03:28N 44°10' E 028°39'0 0.0
2017-Nov-17 02:55N 44°10' E 028°39'0 0.0
2017-Nov-17 02:28N 44°10' E 028°39'0 0.0
2017-Nov-17 01:58N 44°10' E 028°39'0 0.0
2017-Nov-17 01:28N 44°10' E 028°39'0 0.0
2017-Nov-17 00:58N 44°10' E 028°39'0 0.0
2017-Nov-17 00:28N 44°10' E 028°39'0 0.0
2017-Nov-16 23:58N 44°10' E 028°39'0 0.0
2017-Nov-16 23:25N 44°10' E 028°39'0 0.0
2017-Nov-16 22:58N 44°10' E 028°39'0 0.0
2017-Nov-16 22:25N 44°10' E 028°39'0 0.0
2017-Nov-16 21:58N 44°10' E 028°39'0 0.0
2017-Nov-16 21:28N 44°10' E 028°39'0 0.0
2017-Nov-16 20:58N 44°10' E 028°39'0 0.0
2017-Nov-16 20:28N 44°10' E 028°39'0 0.0
2017-Nov-16 19:58N 44°10' E 028°39'0 0.0
2017-Nov-16 19:28N 44°10' E 028°39'0 0.0
2017-Nov-16 18:58N 44°10' E 028°39'0 0.0
2017-Nov-16 18:28N 44°10' E 028°39'0 0.0
2017-Nov-16 17:58N 44°10' E 028°39'0 0.0
2017-Nov-16 17:25N 44°10' E 028°39'0 0.0
2017-Nov-16 16:58N 44°10' E 028°39'0 0.0
2017-Nov-16 16:28N 44°10' E 028°39'0 0.0
2017-Nov-16 15:58N 44°10' E 028°39'0 0.0
2017-Nov-16 15:28N 44°10' E 028°39'0 0.0
2017-Nov-15 06:49N 44°10' E 028°39'0 0.0
2017-Nov-15 06:28N 44°10' E 028°39'0 0.0
2017-Nov-15 05:58N 44°10' E 028°39'0 0.0
2017-Nov-15 05:28N 44°10' E 028°39'0 0.0
2017-Nov-15 04:58N 44°10' E 028°39'0 0.0
2017-Nov-15 04:28N 44°10' E 028°39'0 0.0
2017-Nov-15 03:58N 44°10' E 028°39'0 0.0
2017-Nov-15 03:28N 44°10' E 028°39'0 0.0
2017-Nov-15 02:58N 44°10' E 028°39'0 0.0
2017-Nov-15 02:28N 44°10' E 028°39'0 0.0
2017-Nov-15 01:58N 44°10' E 028°39'0 0.0
2017-Nov-15 01:28N 44°10' E 028°39'0 0.0
2017-Nov-15 00:58N 44°10' E 028°39'0 0.0
2017-Nov-15 00:28N 44°10' E 028°39'0 0.0
2017-Nov-14 23:58N 44°10' E 028°39'0 0.0
2017-Nov-14 23:28N 44°10' E 028°39'0 0.0
2017-Nov-14 22:58N 44°10' E 028°39'0 0.0
2017-Nov-14 22:28N 44°10' E 028°39'0 0.0
2017-Nov-14 21:58N 44°10' E 028°39'0 0.0
2017-Nov-14 21:28N 44°10' E 028°39'0 0.0
2017-Nov-14 20:58N 44°10' E 028°39'0 0.0
2017-Nov-14 20:28N 44°10' E 028°39'0 0.0
2017-Nov-14 19:58N 44°10' E 028°39'0 0.0
2017-Nov-14 19:28N 44°10' E 028°39'0 0.0
2017-Nov-14 18:58N 44°10' E 028°39'0 0.0
2017-Nov-14 18:28N 44°10' E 028°39'0 0.0
2017-Nov-14 17:52N 44°10' E 028°39'0 0.0
2017-Nov-14 17:25N 44°10' E 028°39'0 0.0
2017-Nov-14 16:58N 44°10' E 028°39'0 0.0
2017-Nov-14 16:28N 44°10' E 028°39'0 0.0
2017-Nov-14 15:58N 44°10' E 028°39'0 0.0
2017-Nov-14 15:19N 44°10' E 028°39'0 0.0
2017-Nov-14 14:58N 44°10' E 028°39'0 0.0
2017-Nov-14 14:28N 44°10' E 028°39'0 0.0
2017-Nov-14 13:55N 44°10' E 028°39'0 0.0
2017-Nov-14 13:28N 44°10' E 028°39'0 0.0
2017-Nov-14 12:55N 44°10' E 028°39'0 0.0
2017-Nov-14 12:22N 44°10' E 028°39'0 0.0
2017-Nov-14 11:43N 44°10' E 028°39'0 0.0
2017-Nov-14 11:28N 44°10' E 028°39'0 0.0
2017-Nov-14 10:58N 44°10' E 028°39'0 0.0
2017-Nov-14 10:28N 44°10' E 028°39'0 0.0
2017-Nov-14 09:58N 44°10' E 028°39'0 0.0
2017-Nov-14 09:28N 44°10' E 028°39'0 0.0
2017-Nov-14 08:58N 44°10' E 028°39'0 0.0
2017-Nov-14 08:28N 44°10' E 028°39'0 0.0
2017-Nov-14 07:58N 44°10' E 028°39'0 0.0
2017-Nov-14 07:28N 44°10' E 028°39'0 0.0
2017-Nov-14 06:55N 44°10' E 028°39'0 0.0
2017-Nov-14 06:28N 44°10' E 028°39'0 0.0
2017-Nov-14 05:58N 44°10' E 028°39'0 0.0
2017-Nov-14 05:25N 44°10' E 028°39'0 0.0
2017-Nov-14 04:58N 44°10' E 028°39'0 0.0
2017-Nov-14 04:28N 44°10' E 028°39'0 0.0
2017-Nov-14 03:58N 44°10' E 028°39'0 0.0
2017-Nov-14 03:28N 44°10' E 028°39'0 0.0
2017-Nov-14 02:58N 44°10' E 028°39'0 0.0
2017-Nov-14 02:28N 44°10' E 028°39'0 0.0
2017-Nov-14 01:58N 44°10' E 028°39'0 0.0
2017-Nov-14 01:28N 44°10' E 028°39'0 0.0
2017-Nov-14 00:58N 44°10' E 028°39'0 0.0
2017-Nov-14 00:28N 44°10' E 028°39'0 0.0
2017-Nov-13 23:58N 44°10' E 028°39'0 0.0
2017-Nov-13 23:28N 44°10' E 028°39'0 0.0
2017-Nov-13 22:58N 44°10' E 028°39'0 0.0
2017-Nov-13 22:28N 44°10' E 028°39'0 0.0
2017-Nov-13 21:58N 44°10' E 028°39'0 0.0
2017-Nov-13 01:58N 44°10' E 028°39'0 0.0
2017-Nov-13 01:25N 44°10' E 028°39'0 0.0
2017-Nov-13 00:58N 44°10' E 028°39'0 0.0
2017-Nov-13 00:25N 44°10' E 028°39'0 0.0
2017-Nov-12 23:58N 44°10' E 028°39'0 0.0
2017-Nov-12 23:28N 44°10' E 028°39'0 0.0
2017-Nov-12 22:55N 44°10' E 028°39'0 0.0
2017-Nov-12 22:28N 44°10' E 028°39'0 0.0
2017-Nov-12 21:52N 44°10' E 028°39'0 0.0
2017-Nov-12 21:28N 44°10' E 028°39'0 0.0
2017-Nov-12 20:58N 44°10' E 028°39'0 0.0
2017-Nov-12 20:25N 44°10' E 028°39'0 0.0
2017-Nov-12 19:58N 44°10' E 028°39'0 0.0
2017-Nov-12 19:25N 44°10' E 028°39'0 0.0
2017-Nov-12 18:58N 44°10' E 028°39'0 0.0
2017-Nov-12 18:28N 44°10' E 028°39'0 0.0
2017-Nov-12 17:58N 44°10' E 028°39'0 0.0
2017-Nov-12 17:28N 44°10' E 028°39'0 0.0
2017-Nov-12 16:58N 44°10' E 028°39'0 0.0
2017-Nov-12 16:28N 44°10' E 028°39'0 0.0
2017-Nov-12 15:55N 44°10' E 028°39'0 0.0
2017-Nov-12 15:28N 44°10' E 028°39'0 0.0
2017-Nov-12 14:55N 44°10' E 028°39'0 0.0
2017-Nov-12 14:28N 44°10' E 028°39'0 0.0
2017-Nov-12 13:58N 44°10' E 028°39'0 0.0
2017-Nov-12 13:28N 44°10' E 028°39'0 0.0
2017-Nov-12 12:58N 44°10' E 028°39'0 0.0
2017-Nov-12 12:28N 44°10' E 028°39'0 0.0
2017-Nov-12 11:55N 44°10' E 028°39'0 0.0
2017-Nov-12 11:28N 44°10' E 028°39'0 0.0
2017-Nov-12 10:58N 44°10' E 028°39'0 0.0
2017-Nov-12 10:28N 44°10' E 028°39'0 0.0
2017-Nov-12 09:58N 44°10' E 028°39'0 0.0
2017-Nov-12 09:28N 44°10' E 028°39'0 0.0
2017-Nov-12 08:58N 44°10' E 028°39'0 0.0
2017-Nov-12 08:28N 44°10' E 028°39'0 0.0
2017-Nov-12 07:52N 44°10' E 028°39'0 0.0
2017-Nov-12 07:28N 44°10' E 028°39'0 0.0
2017-Nov-12 06:58N 44°10' E 028°39'0 0.0
2017-Nov-12 06:22N 44°10' E 028°39'0 0.0
2017-Nov-12 05:55N 44°10' E 028°39'0 0.0
2017-Nov-12 05:28N 44°10' E 028°39'0 0.0
2017-Nov-12 04:58N 44°10' E 028°39'0 0.0
2017-Nov-12 04:25N 44°10' E 028°39'0 0.0
2017-Nov-12 03:58N 44°10' E 028°39'0 0.0
2017-Nov-12 03:28N 44°10' E 028°39'0 0.0
2017-Nov-12 02:58N 44°10' E 028°39'0 0.0
2017-Nov-12 02:28N 44°10' E 028°39'0 0.0
2017-Nov-12 01:58N 44°10' E 028°39'0 0.0
2017-Nov-12 01:28N 44°10' E 028°39'0 0.0
2017-Nov-12 00:58N 44°10' E 028°39'0 0.0
2017-Nov-12 00:28N 44°10' E 028°39'0 0.0
2017-Nov-11 23:58N 44°10' E 028°39'0 0.0
2017-Nov-11 23:28N 44°10' E 028°39'0 0.0
2017-Nov-11 22:58N 44°10' E 028°39'0 0.0
2017-Nov-11 22:28N 44°10' E 028°39'0 0.0
2017-Nov-11 21:58N 44°10' E 028°39'0 0.0
2017-Nov-11 21:28N 44°10' E 028°39'0 0.0
2017-Nov-11 20:58N 44°10' E 028°39'0 0.0
2017-Nov-11 20:28N 44°10' E 028°39'0 0.0
2017-Nov-11 19:58N 44°10' E 028°39'0 0.0
2017-Nov-11 19:28N 44°10' E 028°39'0 0.0
2017-Nov-11 18:58N 44°10' E 028°39'0 0.0
2017-Nov-11 18:28N 44°10' E 028°39'0 0.0
2017-Nov-11 17:58N 44°10' E 028°39'0 0.0
2017-Nov-11 17:28N 44°10' E 028°39'0 0.0
2017-Nov-11 16:58N 44°10' E 028°39'0 0.0
2017-Nov-11 16:25N 44°10' E 028°39'0 0.0
2017-Nov-11 15:58N 44°10' E 028°39'0 0.0
2017-Nov-11 15:28N 44°10' E 028°39'0 0.0
2017-Nov-11 14:58N 44°10' E 028°39'0 0.0
2017-Nov-11 14:28N 44°10' E 028°39'0 0.0
2017-Nov-11 13:58N 44°10' E 028°39'0 0.0
2017-Nov-11 13:28N 44°10' E 028°39'0 0.0
2017-Nov-11 12:58N 44°10' E 028°39'0 0.0
2017-Nov-11 12:28N 44°10' E 028°39'0 0.0
2017-Nov-11 11:55N 44°10' E 028°39'0 0.0
2017-Nov-11 11:28N 44°10' E 028°39'0 0.0
2017-Nov-11 10:58N 44°10' E 028°39'0 0.0
2017-Nov-11 10:28N 44°10' E 028°39'0 0.0
2017-Nov-11 09:58N 44°10' E 028°39'0 0.0
2017-Nov-11 09:25N 44°10' E 028°39'0 0.0
2017-Nov-11 08:58N 44°10' E 028°39'0 0.0
2017-Nov-11 08:28N 44°10' E 028°39'0 0.0
2017-Nov-11 07:52N 44°10' E 028°39'0 0.0
2017-Nov-11 07:28N 44°10' E 028°39'0 0.0
2017-Nov-11 06:58N 44°10' E 028°39'0 0.0
2017-Nov-11 06:28N 44°10' E 028°39'0 0.0
2017-Nov-11 05:58N 44°10' E 028°39'0 0.0
2017-Nov-11 05:28N 44°10' E 028°39'0 0.0
2017-Nov-11 04:58N 44°10' E 028°39'0 0.0
2017-Nov-11 04:28N 44°10' E 028°39'0 0.0
2017-Nov-11 03:58N 44°10' E 028°39'0 0.0
2017-Nov-11 03:25N 44°10' E 028°39'0 0.0
2017-Nov-11 02:58N 44°10' E 028°39'0 0.0
2017-Nov-11 02:28N 44°10' E 028°39'0 0.0
2017-Nov-11 01:58N 44°10' E 028°39'0 0.0
2017-Nov-11 01:28N 44°10' E 028°39'0 0.0
2017-Nov-11 00:58N 44°10' E 028°39'0 0.0
2017-Nov-11 00:28N 44°10' E 028°39'0 0.0
2017-Nov-10 23:58N 44°10' E 028°39'0 0.0
2017-Nov-10 23:28N 44°10' E 028°39'0 0.0
2017-Nov-10 22:58N 44°10' E 028°39'0 0.0
2017-Nov-10 22:28N 44°10' E 028°39'0 0.0
2017-Nov-10 21:58N 44°10' E 028°39'0 0.0
2017-Nov-10 21:28N 44°10' E 028°39'0 0.0
2017-Nov-10 20:58N 44°10' E 028°39'0 0.0
2017-Nov-10 20:28N 44°10' E 028°39'0 0.0
2017-Nov-10 19:58N 44°10' E 028°39'0 0.0
2017-Nov-10 19:28N 44°10' E 028°39'0 0.0
2017-Nov-10 18:55N 44°10' E 028°39'0 0.0
2017-Nov-10 18:25N 44°10' E 028°39'0 0.0
2017-Nov-10 17:58N 44°10' E 028°39'0 0.0
2017-Nov-10 17:28N 44°10' E 028°39'0 0.0
2017-Nov-10 16:58N 44°10' E 028°39'0 0.0
2017-Nov-10 16:28N 44°10' E 028°39'0 0.0
2017-Nov-10 15:58N 44°10' E 028°39'0 0.0
2017-Nov-10 15:28N 44°10' E 028°39'0 0.0
2017-Nov-10 14:58N 44°10' E 028°39'0 0.0
2017-Nov-10 14:28N 44°10' E 028°39'0 0.0
2017-Nov-10 13:58N 44°10' E 028°39'0 0.0
2017-Nov-10 13:19N 44°10' E 028°39'0 0.0
2017-Nov-10 12:58N 44°10' E 028°39'0 0.0
2017-Nov-10 12:28N 44°10' E 028°39'0 0.0
2017-Nov-10 11:55N 44°10' E 028°39'0 0.0
2017-Nov-10 11:28N 44°10' E 028°39'0 0.0
2017-Nov-10 10:58N 44°10' E 028°39'0 0.0
2017-Nov-10 10:25N 44°10' E 028°39'0 0.0
2017-Nov-10 09:58N 44°10' E 028°39'0 0.0
2017-Nov-10 09:28N 44°10' E 028°39'0 0.0
2017-Nov-10 08:58N 44°10' E 028°39'0 0.0
2017-Nov-10 08:28N 44°10' E 028°39'0 0.0
2017-Nov-10 07:58N 44°10' E 028°39'0 0.0
2017-Nov-10 07:28N 44°10' E 028°39'0 0.0
2017-Nov-10 06:58N 44°10' E 028°39'0 0.0
2017-Nov-10 06:28N 44°10' E 028°39'0 0.0
2017-Nov-10 05:58N 44°10' E 028°39'0 0.0
2017-Nov-10 05:28N 44°10' E 028°39'0 0.0
2017-Nov-10 04:58N 44°10' E 028°39'0 0.0
2017-Nov-10 04:28N 44°10' E 028°39'0 0.0
2017-Nov-10 03:55N 44°10' E 028°39'0 0.0
2017-Nov-10 03:28N 44°10' E 028°39'0 0.0
2017-Nov-10 02:58N 44°10' E 028°39'0 0.0
2017-Nov-10 02:28N 44°10' E 028°39'0 0.0
2017-Nov-10 01:58N 44°10' E 028°39'0 0.0
2017-Nov-10 01:25N 44°10' E 028°39'0 0.0
2017-Nov-10 00:58N 44°10' E 028°39'0 0.0
2017-Nov-10 00:28N 44°10' E 028°39'0 0.0
2017-Nov-09 23:58N 44°10' E 028°39'0 0.0
2017-Nov-09 23:28N 44°10' E 028°39'0 0.0
2017-Nov-09 22:58N 44°10' E 028°39'0 0.0
2017-Nov-09 22:28N 44°10' E 028°39'0 0.0
2017-Nov-09 21:58N 44°10' E 028°39'0 0.0
2017-Nov-09 21:28N 44°10' E 028°39'0 0.0
2017-Nov-09 20:58N 44°10' E 028°39'0 0.0
2017-Nov-09 20:28N 44°10' E 028°39'0 0.0
2017-Nov-09 19:58N 44°10' E 028°39'0 0.0
2017-Nov-09 19:28N 44°10' E 028°39'0 0.0
2017-Nov-09 18:55N 44°10' E 028°39'0 0.0
2017-Nov-09 18:28N 44°10' E 028°39'0 0.0
2017-Nov-09 17:55N 44°10' E 028°39'0 0.0
2017-Nov-09 17:28N 44°10' E 028°39'0 0.0
2017-Nov-09 16:55N 44°10' E 028°39'0 0.0
2017-Nov-09 16:28N 44°10' E 028°39'0 0.0
2017-Nov-09 15:58N 44°10' E 028°39'0 0.0
2017-Nov-09 15:28N 44°10' E 028°39'0 0.0
2017-Nov-09 14:58N 44°10' E 028°39'0 0.0
2017-Nov-09 14:28N 44°10' E 028°39'0 0.0
2017-Nov-09 13:58N 44°10' E 028°39'0 0.0
2017-Nov-09 13:28N 44°10' E 028°39'0 0.0
2017-Nov-09 12:58N 44°10' E 028°39'0 0.0
2017-Nov-09 12:25N 44°10' E 028°39'0 0.0
2017-Nov-09 11:58N 44°10' E 028°39'0 0.0
2017-Nov-09 11:25N 44°10' E 028°39'0 0.0
2017-Nov-09 10:58N 44°10' E 028°39'0 0.0
2017-Nov-09 10:25N 44°10' E 028°39'0 0.0
2017-Nov-09 09:58N 44°10' E 028°39'0 0.0
2017-Nov-09 09:28N 44°10' E 028°39'0 0.0
2017-Nov-09 08:52N 44°10' E 028°39'0 0.0
2017-Nov-09 08:28N 44°10' E 028°39'0 0.0
2017-Nov-09 07:55N 44°10' E 028°39'0 0.0
2017-Nov-09 07:25N 44°10' E 028°39'0 0.0
2017-Nov-09 06:58N 44°10' E 028°39'0 0.0
2017-Nov-09 06:25N 44°10' E 028°39'0 0.0
2017-Nov-09 05:58N 44°10' E 028°39'0 0.0
2017-Nov-09 05:28N 44°10' E 028°39'0 0.0
2017-Nov-09 04:58N 44°10' E 028°39'0 0.0
2017-Nov-09 04:25N 44°10' E 028°39'0 0.0
2017-Nov-09 03:58N 44°10' E 028°39'0 0.0
2017-Nov-09 03:28N 44°10' E 028°39'0 0.0
2017-Nov-09 02:58N 44°10' E 028°39'0 0.0
2017-Nov-09 02:28N 44°10' E 028°39'0 0.0
2017-Nov-09 01:58N 44°10' E 028°39'0 0.0
2017-Nov-09 01:22N 44°10' E 028°39'0 0.0
2017-Nov-09 00:58N 44°10' E 028°39'0 0.0
2017-Nov-09 00:25N 44°10' E 028°39'0 0.0
2017-Nov-08 23:58N 44°10' E 028°39'0 0.0
2017-Nov-08 23:28N 44°10' E 028°39'0 0.0
2017-Nov-08 22:58N 44°10' E 028°39'0 0.0
2017-Nov-08 22:28N 44°10' E 028°39'0 0.0
2017-Nov-08 21:58N 44°10' E 028°39'0 0.0
2017-Nov-08 21:28N 44°10' E 028°39'0 0.0
2017-Nov-08 20:58N 44°10' E 028°39'0 0.0
2017-Nov-08 20:28N 44°10' E 028°39'0 0.0
2017-Nov-08 19:58N 44°10' E 028°39'0 0.0
2017-Nov-08 19:28N 44°10' E 028°39'0 0.0
2017-Nov-08 18:58N 44°10' E 028°39'0 0.0
2017-Nov-08 18:28N 44°10' E 028°39'0 0.0
2017-Nov-08 17:58N 44°10' E 028°39'0 0.0
2017-Nov-08 17:28N 44°10' E 028°39'0 0.0
2017-Nov-08 16:58N 44°10' E 028°39'0 0.0
2017-Nov-08 16:28N 44°10' E 028°39'0 0.0
2017-Nov-08 15:55N 44°10' E 028°39'0 0.0
2017-Nov-08 15:25N 44°10' E 028°39'0 0.0
2017-Nov-08 14:54N 44°10' E 028°39'0 0.0
2017-Nov-08 14:27N 44°10' E 028°39'0 0.0
2017-Nov-08 14:00N 44°10' E 028°39'0 0.0
2017-Nov-08 13:30N 44°10' E 028°39'0 0.0
2017-Nov-08 13:00N 44°10' E 028°39'0 0.0
2017-Nov-08 12:30N 44°10' E 028°39'0 0.0
2017-Nov-08 12:00N 44°10' E 028°39'0 0.0
2017-Nov-08 11:30N 44°10' E 028°39'0 0.0
2017-Nov-08 11:00N 44°10' E 028°39'0 0.0
2017-Nov-08 10:30N 44°10' E 028°39'0 0.0
2017-Nov-08 10:00N 44°10' E 028°39'0 0.0
2017-Nov-08 09:30N 44°10' E 028°39'0 0.0
2017-Nov-08 09:00N 44°10' E 028°39'0 0.0
2017-Nov-08 08:27N 44°10' E 028°39'0 0.0
2017-Nov-08 08:00N 44°10' E 028°39'0 0.0
2017-Nov-08 07:30N 44°10' E 028°39'0 0.0
2017-Nov-08 07:00N 44°10' E 028°39'0 0.0
2017-Nov-08 06:30N 44°10' E 028°39'0 0.0
2017-Nov-08 06:00N 44°10' E 028°39'0 0.0
2017-Nov-08 05:27N 44°10' E 028°39'0 0.0
2017-Nov-08 05:00N 44°10' E 028°39'0 0.0
2017-Nov-08 04:27N 44°10' E 028°39'0 0.0
2017-Nov-08 04:00N 44°10' E 028°39'0 0.0
2017-Nov-08 03:30N 44°10' E 028°39'0 0.0
2017-Nov-08 03:00N 44°10' E 028°39'0 0.0
2017-Nov-08 02:30N 44°10' E 028°39'0 0.0
2017-Nov-08 02:00N 44°10' E 028°39'0 0.0
2017-Nov-08 01:30N 44°10' E 028°39'0 0.0
2017-Nov-08 01:00N 44°10' E 028°39'0 0.0
2017-Nov-08 00:30N 44°10' E 028°39'0 0.0
2017-Nov-08 00:00N 44°10' E 028°39'0 0.0
2017-Nov-07 23:30N 44°10' E 028°39'0 0.0
2017-Nov-07 23:00N 44°10' E 028°39'0 0.0
2017-Nov-07 22:30N 44°10' E 028°39'0 0.0
2017-Nov-07 22:00N 44°10' E 028°39'0 0.0
2017-Nov-07 21:24N 44°10' E 028°39'0 0.0
2017-Nov-07 20:57N 44°10' E 028°39'0 0.0
2017-Nov-07 20:30N 44°10' E 028°39'0 0.0
2017-Nov-07 20:00N 44°10' E 028°39'0 0.0
2017-Nov-07 19:30N 44°10' E 028°39'0 0.0
2017-Nov-07 18:57N 44°10' E 028°39'0 0.0
2017-Nov-07 18:30N 44°10' E 028°39'0 0.0
2017-Nov-07 18:00N 44°10' E 028°39'0 0.0
2017-Nov-07 17:30N 44°10' E 028°39'  
Track history (hours):
 
Tides and Currents Weather Stations Pressure Air Temp Water Temp Dewpoint Dewpoint Depression Visibility Wind Speed Wind Dir Waves Ship Positions

Saturn

Last reported at 2017-Nov-17 17:28 UTC. Time now 2017-Nov-17 17:56 UTC.
Position N 44°10' E 028°39'.

Length 12 m.

Type: SAR. MMSI: 264900320.

Date/timePositionNaut miles runAvg speedWind from/ knotsBaromVisibWave heightAir tempDewpointWater temp
2017-Nov-17 17:28N 44°10' E 028°39'0 0.0
2017-Nov-17 16:58N 44°10' E 028°39'0 0.0
2017-Nov-17 16:28N 44°10' E 028°39'0 0.0
2017-Nov-17 15:58N 44°10' E 028°39'0 0.0
2017-Nov-17 15:28N 44°10' E 028°39'0 0.0
2017-Nov-17 14:58N 44°10' E 028°39'0 0.0
2017-Nov-17 14:25N 44°10' E 028°39'0 0.0
2017-Nov-17 13:58N 44°10' E 028°39'0 0.0
2017-Nov-17 13:28N 44°10' E 028°39'0 0.0
2017-Nov-17 12:58N 44°10' E 028°39'0 0.0
2017-Nov-17 12:28N 44°10' E 028°39'0 0.0
2017-Nov-17 11:55N 44°10' E 028°39'0 0.0
2017-Nov-17 11:28N 44°10' E 028°39'2 3.3
2017-Nov-17 11:00N 44°08' E 028°39'2 4.5
2017-Nov-17 10:28N 44°06' E 028°39'0 0.0
2017-Nov-17 09:58N 44°06' E 028°39'0 0.0
2017-Nov-17 09:28N 44°06' E 028°39'0 0.0
2017-Nov-17 09:00N 44°06' E 028°39'0 0.0
2017-Nov-17 08:10N 44°06' E 028°39'1 3.6
2017-Nov-17 08:00N 44°06' E 028°39'3 1.5
2017-Nov-17 06:03N 44°09' E 028°40'0 3.2
2017-Nov-17 06:00N 44°09' E 028°40'1 0.9
2017-Nov-17 05:25N 44°10' E 028°39'0 0.0
2017-Nov-17 04:58N 44°10' E 028°39'0 0.0
2017-Nov-17 04:25N 44°10' E 028°39'0 0.0
2017-Nov-17 03:58N 44°10' E 028°39'0 0.0
2017-Nov-17 03:28N 44°10' E 028°39'0 0.0
2017-Nov-17 02:55N 44°10' E 028°39'0 0.0
2017-Nov-17 02:28N 44°10' E 028°39'0 0.0
2017-Nov-17 01:58N 44°10' E 028°39'0 0.0
2017-Nov-17 01:28N 44°10' E 028°39'0 0.0
2017-Nov-17 00:58N 44°10' E 028°39'0 0.0
2017-Nov-17 00:28N 44°10' E 028°39'0 0.0
2017-Nov-16 23:58N 44°10' E 028°39'0 0.0
2017-Nov-16 23:25N 44°10' E 028°39'0 0.0
2017-Nov-16 22:58N 44°10' E 028°39'0 0.0
2017-Nov-16 22:25N 44°10' E 028°39'0 0.0
2017-Nov-16 21:58N 44°10' E 028°39'0 0.0
2017-Nov-16 21:28N 44°10' E 028°39'0 0.0
2017-Nov-16 20:58N 44°10' E 028°39'0 0.0
2017-Nov-16 20:28N 44°10' E 028°39'0 0.0
2017-Nov-16 19:58N 44°10' E 028°39'0 0.0
2017-Nov-16 19:28N 44°10' E 028°39'0 0.0
2017-Nov-16 18:58N 44°10' E 028°39'0 0.0
2017-Nov-16 18:28N 44°10' E 028°39'0 0.0
2017-Nov-16 17:58N 44°10' E 028°39'0 0.0
2017-Nov-16 17:25N 44°10' E 028°39'0 0.0
2017-Nov-16 16:58N 44°10' E 028°39'0 0.0
2017-Nov-16 16:28N 44°10' E 028°39'0 0.0
2017-Nov-16 15:58N 44°10' E 028°39'0 0.0
2017-Nov-16 15:28N 44°10' E 028°39'0 0.0
2017-Nov-15 06:49N 44°10' E 028°39'0 0.0
2017-Nov-15 06:28N 44°10' E 028°39'0 0.0
2017-Nov-15 05:58N 44°10' E 028°39'0 0.0
2017-Nov-15 05:28N 44°10' E 028°39'0 0.0
2017-Nov-15 04:58N 44°10' E 028°39'0 0.0
2017-Nov-15 04:28N 44°10' E 028°39'0 0.0
2017-Nov-15 03:58N 44°10' E 028°39'0 0.0
2017-Nov-15 03:28N 44°10' E 028°39'0 0.0
2017-Nov-15 02:58N 44°10' E 028°39'0 0.0
2017-Nov-15 02:28N 44°10' E 028°39'0 0.0
2017-Nov-15 01:58N 44°10' E 028°39'0 0.0
2017-Nov-15 01:28N 44°10' E 028°39'0 0.0
2017-Nov-15 00:58N 44°10' E 028°39'0 0.0
2017-Nov-15 00:28N 44°10' E 028°39'0 0.0
2017-Nov-14 23:58N 44°10' E 028°39'0 0.0
2017-Nov-14 23:28N 44°10' E 028°39'0 0.0
2017-Nov-14 22:58N 44°10' E 028°39'0 0.0
2017-Nov-14 22:28N 44°10' E 028°39'0 0.0
2017-Nov-14 21:58N 44°10' E 028°39'0 0.0
2017-Nov-14 21:28N 44°10' E 028°39'0 0.0
2017-Nov-14 20:58N 44°10' E 028°39'0 0.0
2017-Nov-14 20:28N 44°10' E 028°39'0 0.0
2017-Nov-14 19:58N 44°10' E 028°39'0 0.0
2017-Nov-14 19:28N 44°10' E 028°39'0 0.0
2017-Nov-14 18:58N 44°10' E 028°39'0 0.0
2017-Nov-14 18:28N 44°10' E 028°39'0 0.0
2017-Nov-14 17:52N 44°10' E 028°39'0 0.0
2017-Nov-14 17:25N 44°10' E 028°39'0 0.0
2017-Nov-14 16:58N 44°10' E 028°39'0 0.0
2017-Nov-14 16:28N 44°10' E 028°39'0 0.0
2017-Nov-14 15:58N 44°10' E 028°39'0 0.0
2017-Nov-14 15:19N 44°10' E 028°39'0 0.0
2017-Nov-14 14:58N 44°10' E 028°39'0 0.0
2017-Nov-14 14:28N 44°10' E 028°39'0 0.0
2017-Nov-14 13:55N 44°10' E 028°39'0 0.0
2017-Nov-14 13:28N 44°10' E 028°39'0 0.0
2017-Nov-14 12:55N 44°10' E 028°39'0 0.0
2017-Nov-14 12:22N 44°10' E 028°39'0 0.0
2017-Nov-14 11:43N 44°10' E 028°39'0 0.0
2017-Nov-14 11:28N 44°10' E 028°39'0 0.0
2017-Nov-14 10:58N 44°10' E 028°39'0 0.0
2017-Nov-14 10:28N 44°10' E 028°39'0 0.0
2017-Nov-14 09:58N 44°10' E 028°39'0 0.0
2017-Nov-14 09:28N 44°10' E 028°39'0 0.0
2017-Nov-14 08:58N 44°10' E 028°39'0 0.0
2017-Nov-14 08:28N 44°10' E 028°39'0 0.0
2017-Nov-14 07:58N 44°10' E 028°39'0 0.0
2017-Nov-14 07:28N 44°10' E 028°39'0 0.0
2017-Nov-14 06:55N 44°10' E 028°39'0 0.0
2017-Nov-14 06:28N 44°10' E 028°39'0 0.0
2017-Nov-14 05:58N 44°10' E 028°39'0 0.0
2017-Nov-14 05:25N 44°10' E 028°39'0 0.0
2017-Nov-14 04:58N 44°10' E 028°39'0 0.0
2017-Nov-14 04:28N 44°10' E 028°39'0 0.0
2017-Nov-14 03:58N 44°10' E 028°39'0 0.0
2017-Nov-14 03:28N 44°10' E 028°39'0 0.0
2017-Nov-14 02:58N 44°10' E 028°39'0 0.0
2017-Nov-14 02:28N 44°10' E 028°39'0 0.0
2017-Nov-14 01:58N 44°10' E 028°39'0 0.0
2017-Nov-14 01:28N 44°10' E 028°39'0 0.0
2017-Nov-14 00:58N 44°10' E 028°39'0 0.0
2017-Nov-14 00:28N 44°10' E 028°39'0 0.0
2017-Nov-13 23:58N 44°10' E 028°39'0 0.0
2017-Nov-13 23:28N 44°10' E 028°39'0 0.0
2017-Nov-13 22:58N 44°10' E 028°39'0 0.0
2017-Nov-13 22:28N 44°10' E 028°39'0 0.0
2017-Nov-13 21:58N 44°10' E 028°39'0 0.0
2017-Nov-13 01:58N 44°10' E 028°39'0 0.0
2017-Nov-13 01:25N 44°10' E 028°39'0 0.0
2017-Nov-13 00:58N 44°10' E 028°39'0 0.0
2017-Nov-13 00:25N 44°10' E 028°39'0 0.0
2017-Nov-12 23:58N 44°10' E 028°39'0 0.0
2017-Nov-12 23:28N 44°10' E 028°39'0 0.0
2017-Nov-12 22:55N 44°10' E 028°39'0 0.0
2017-Nov-12 22:28N 44°10' E 028°39'0 0.0
2017-Nov-12 21:52N 44°10' E 028°39'0 0.0
2017-Nov-12 21:28N 44°10' E 028°39'0 0.0
2017-Nov-12 20:58N 44°10' E 028°39'0 0.0
2017-Nov-12 20:25N 44°10' E 028°39'0 0.0
2017-Nov-12 19:58N 44°10' E 028°39'0 0.0
2017-Nov-12 19:25N 44°10' E 028°39'0 0.0
2017-Nov-12 18:58N 44°10' E 028°39'0 0.0
2017-Nov-12 18:28N 44°10' E 028°39'0 0.0
2017-Nov-12 17:58N 44°10' E 028°39'0 0.0
2017-Nov-12 17:28N 44°10' E 028°39'0 0.0
2017-Nov-12 16:58N 44°10' E 028°39'0 0.0
2017-Nov-12 16:28N 44°10' E 028°39'0 0.0
2017-Nov-12 15:55N 44°10' E 028°39'0 0.0
2017-Nov-12 15:28N 44°10' E 028°39'0 0.0
2017-Nov-12 14:55N 44°10' E 028°39'0 0.0
2017-Nov-12 14:28N 44°10' E 028°39'0 0.0
2017-Nov-12 13:58N 44°10' E 028°39'0 0.0
2017-Nov-12 13:28N 44°10' E 028°39'0 0.0
2017-Nov-12 12:58N 44°10' E 028°39'0 0.0
2017-Nov-12 12:28N 44°10' E 028°39'0 0.0
2017-Nov-12 11:55N 44°10' E 028°39'0 0.0
2017-Nov-12 11:28N 44°10' E 028°39'0 0.0
2017-Nov-12 10:58N 44°10' E 028°39'0 0.0
2017-Nov-12 10:28N 44°10' E 028°39'0 0.0
2017-Nov-12 09:58N 44°10' E 028°39'0 0.0
2017-Nov-12 09:28N 44°10' E 028°39'0 0.0
2017-Nov-12 08:58N 44°10' E 028°39'0 0.0
2017-Nov-12 08:28N 44°10' E 028°39'0 0.0
2017-Nov-12 07:52N 44°10' E 028°39'0 0.0
2017-Nov-12 07:28N 44°10' E 028°39'0 0.0
2017-Nov-12 06:58N 44°10' E 028°39'0 0.0
2017-Nov-12 06:22N 44°10' E 028°39'0 0.0
2017-Nov-12 05:55N 44°10' E 028°39'0 0.0
2017-Nov-12 05:28N 44°10' E 028°39'0 0.0
2017-Nov-12 04:58N 44°10' E 028°39'0 0.0
2017-Nov-12 04:25N 44°10' E 028°39'0 0.0
2017-Nov-12 03:58N 44°10' E 028°39'0 0.0
2017-Nov-12 03:28N 44°10' E 028°39'0 0.0
2017-Nov-12 02:58N 44°10' E 028°39'0 0.0
2017-Nov-12 02:28N 44°10' E 028°39'0 0.0
2017-Nov-12 01:58N 44°10' E 028°39'0 0.0
2017-Nov-12 01:28N 44°10' E 028°39'0 0.0
2017-Nov-12 00:58N 44°10' E 028°39'0 0.0
2017-Nov-12 00:28N 44°10' E 028°39'0 0.0
2017-Nov-11 23:58N 44°10' E 028°39'0 0.0
2017-Nov-11 23:28N 44°10' E 028°39'0 0.0
2017-Nov-11 22:58N 44°10' E 028°39'0 0.0
2017-Nov-11 22:28N 44°10' E 028°39'0 0.0
2017-Nov-11 21:58N 44°10' E 028°39'0 0.0
2017-Nov-11 21:28N 44°10' E 028°39'0 0.0
2017-Nov-11 20:58N 44°10' E 028°39'0 0.0
2017-Nov-11 20:28N 44°10' E 028°39'0 0.0
2017-Nov-11 19:58N 44°10' E 028°39'0 0.0
2017-Nov-11 19:28N 44°10' E 028°39'0 0.0
2017-Nov-11 18:58N 44°10' E 028°39'0 0.0
2017-Nov-11 18:28N 44°10' E 028°39'0 0.0
2017-Nov-11 17:58N 44°10' E 028°39'0 0.0
2017-Nov-11 17:28N 44°10' E 028°39'0 0.0
2017-Nov-11 16:58N 44°10' E 028°39'0 0.0
2017-Nov-11 16:25N 44°10' E 028°39'0 0.0
2017-Nov-11 15:58N 44°10' E 028°39'0 0.0
2017-Nov-11 15:28N 44°10' E 028°39'0 0.0
2017-Nov-11 14:58N 44°10' E 028°39'0 0.0
2017-Nov-11 14:28N 44°10' E 028°39'0 0.0
2017-Nov-11 13:58N 44°10' E 028°39'0 0.0
2017-Nov-11 13:28N 44°10' E 028°39'0 0.0
2017-Nov-11 12:58N 44°10' E 028°39'0 0.0
2017-Nov-11 12:28N 44°10' E 028°39'0 0.0
2017-Nov-11 11:55N 44°10' E 028°39'0 0.0
2017-Nov-11 11:28N 44°10' E 028°39'0 0.0
2017-Nov-11 10:58N 44°10' E 028°39'0 0.0
2017-Nov-11 10:28N 44°10' E 028°39'0 0.0
2017-Nov-11 09:58N 44°10' E 028°39'0 0.0
2017-Nov-11 09:25N 44°10' E 028°39'0 0.0
2017-Nov-11 08:58N 44°10' E 028°39'0 0.0
2017-Nov-11 08:28N 44°10' E 028°39'0 0.0
2017-Nov-11 07:52N 44°10' E 028°39'0 0.0
2017-Nov-11 07:28N 44°10' E 028°39'0 0.0
2017-Nov-11 06:58N 44°10' E 028°39'0 0.0
2017-Nov-11 06:28N 44°10' E 028°39'0 0.0
2017-Nov-11 05:58N 44°10' E 028°39'0 0.0
2017-Nov-11 05:28N 44°10' E 028°39'0 0.0
2017-Nov-11 04:58N 44°10' E 028°39'0 0.0
2017-Nov-11 04:28N 44°10' E 028°39'0 0.0
2017-Nov-11 03:58N 44°10' E 028°39'0 0.0
2017-Nov-11 03:25N 44°10' E 028°39'0 0.0
2017-Nov-11 02:58N 44°10' E 028°39'0 0.0
2017-Nov-11 02:28N 44°10' E 028°39'0 0.0
2017-Nov-11 01:58N 44°10' E 028°39'0 0.0
2017-Nov-11 01:28N 44°10' E 028°39'0 0.0
2017-Nov-11 00:58N 44°10' E 028°39'0 0.0
2017-Nov-11 00:28N 44°10' E 028°39'0 0.0
2017-Nov-10 23:58N 44°10' E 028°39'0 0.0
2017-Nov-10 23:28N 44°10' E 028°39'0 0.0
2017-Nov-10 22:58N 44°10' E 028°39'0 0.0
2017-Nov-10 22:28N 44°10' E 028°39'0 0.0
2017-Nov-10 21:58N 44°10' E 028°39'0 0.0
2017-Nov-10 21:28N 44°10' E 028°39'0 0.0
2017-Nov-10 20:58N 44°10' E 028°39'0 0.0
2017-Nov-10 20:28N 44°10' E 028°39'0 0.0
2017-Nov-10 19:58N 44°10' E 028°39'0 0.0
2017-Nov-10 19:28N 44°10' E 028°39'0 0.0
2017-Nov-10 18:55N 44°10' E 028°39'0 0.0
2017-Nov-10 18:25N 44°10' E 028°39'0 0.0
2017-Nov-10 17:58N 44°10' E 028°39'0 0.0
2017-Nov-10 17:28N 44°10' E 028°39'0 0.0
2017-Nov-10 16:58N 44°10' E 028°39'0 0.0
2017-Nov-10 16:28N 44°10' E 028°39'0 0.0
2017-Nov-10 15:58N 44°10' E 028°39'0 0.0
2017-Nov-10 15:28N 44°10' E 028°39'0 0.0
2017-Nov-10 14:58N 44°10' E 028°39'0 0.0
2017-Nov-10 14:28N 44°10' E 028°39'0 0.0
2017-Nov-10 13:58N 44°10' E 028°39'0 0.0
2017-Nov-10 13:19N 44°10' E 028°39'0 0.0
2017-Nov-10 12:58N 44°10' E 028°39'0 0.0
2017-Nov-10 12:28N 44°10' E 028°39'0 0.0
2017-Nov-10 11:55N 44°10' E 028°39'0 0.0
2017-Nov-10 11:28N 44°10' E 028°39'0 0.0
2017-Nov-10 10:58N 44°10' E 028°39'0 0.0
2017-Nov-10 10:25N 44°10' E 028°39'0 0.0
2017-Nov-10 09:58N 44°10' E 028°39'0 0.0
2017-Nov-10 09:28N 44°10' E 028°39'0 0.0
2017-Nov-10 08:58N 44°10' E 028°39'0 0.0
2017-Nov-10 08:28N 44°10' E 028°39'0 0.0
2017-Nov-10 07:58N 44°10' E 028°39'0 0.0
2017-Nov-10 07:28N 44°10' E 028°39'0 0.0
2017-Nov-10 06:58N 44°10' E 028°39'0 0.0
2017-Nov-10 06:28N 44°10' E 028°39'0 0.0
2017-Nov-10 05:58N 44°10' E 028°39'0 0.0
2017-Nov-10 05:28N 44°10' E 028°39'0 0.0
2017-Nov-10 04:58N 44°10' E 028°39'0 0.0
2017-Nov-10 04:28N 44°10' E 028°39'0 0.0
2017-Nov-10 03:55N 44°10' E 028°39'0 0.0
2017-Nov-10 03:28N 44°10' E 028°39'0 0.0
2017-Nov-10 02:58N 44°10' E 028°39'0 0.0
2017-Nov-10 02:28N 44°10' E 028°39'0 0.0
2017-Nov-10 01:58N 44°10' E 028°39'0 0.0
2017-Nov-10 01:25N 44°10' E 028°39'0 0.0
2017-Nov-10 00:58N 44°10' E 028°39'0 0.0
2017-Nov-10 00:28N 44°10' E 028°39'0 0.0
2017-Nov-09 23:58N 44°10' E 028°39'0 0.0
2017-Nov-09 23:28N 44°10' E 028°39'0 0.0
2017-Nov-09 22:58N 44°10' E 028°39'0 0.0
2017-Nov-09 22:28N 44°10' E 028°39'0 0.0
2017-Nov-09 21:58N 44°10' E 028°39'0 0.0
2017-Nov-09 21:28N 44°10' E 028°39'0 0.0
2017-Nov-09 20:58N 44°10' E 028°39'0 0.0
2017-Nov-09 20:28N 44°10' E 028°39'0 0.0
2017-Nov-09 19:58N 44°10' E 028°39'0 0.0
2017-Nov-09 19:28N 44°10' E 028°39'0 0.0
2017-Nov-09 18:55N 44°10' E 028°39'0 0.0
2017-Nov-09 18:28N 44°10' E 028°39'0 0.0
2017-Nov-09 17:55N 44°10' E 028°39'0 0.0
2017-Nov-09 17:28N 44°10' E 028°39'0 0.0
2017-Nov-09 16:55N 44°10' E 028°39'0 0.0
2017-Nov-09 16:28N 44°10' E 028°39'0 0.0
2017-Nov-09 15:58N 44°10' E 028°39'0 0.0
2017-Nov-09 15:28N 44°10' E 028°39'0 0.0
2017-Nov-09 14:58N 44°10' E 028°39'0 0.0
2017-Nov-09 14:28N 44°10' E 028°39'0 0.0
2017-Nov-09 13:58N 44°10' E 028°39'0 0.0
2017-Nov-09 13:28N 44°10' E 028°39'0 0.0
2017-Nov-09 12:58N 44°10' E 028°39'0 0.0
2017-Nov-09 12:25N 44°10' E 028°39'0 0.0
2017-Nov-09 11:58N 44°10' E 028°39'0 0.0
2017-Nov-09 11:25N 44°10' E 028°39'0 0.0
2017-Nov-09 10:58N 44°10' E 028°39'0 0.0
2017-Nov-09 10:25N 44°10' E 028°39'0 0.0
2017-Nov-09 09:58N 44°10' E 028°39'0 0.0
2017-Nov-09 09:28N 44°10' E 028°39'0 0.0
2017-Nov-09 08:52N 44°10' E 028°39'0 0.0
2017-Nov-09 08:28N 44°10' E 028°39'0 0.0
2017-Nov-09 07:55N 44°10' E 028°39'0 0.0
2017-Nov-09 07:25N 44°10' E 028°39'0 0.0
2017-Nov-09 06:58N 44°10' E 028°39'0 0.0
2017-Nov-09 06:25N 44°10' E 028°39'0 0.0
2017-Nov-09 05:58N 44°10' E 028°39'0 0.0
2017-Nov-09 05:28N 44°10' E 028°39'0 0.0
2017-Nov-09 04:58N 44°10' E 028°39'0 0.0
2017-Nov-09 04:25N 44°10' E 028°39'0 0.0
2017-Nov-09 03:58N 44°10' E 028°39'0 0.0
2017-Nov-09 03:28N 44°10' E 028°39'0 0.0
2017-Nov-09 02:58N 44°10' E 028°39'0 0.0
2017-Nov-09 02:28N 44°10' E 028°39'0 0.0
2017-Nov-09 01:58N 44°10' E 028°39'0 0.0
2017-Nov-09 01:22N 44°10' E 028°39'0 0.0
2017-Nov-09 00:58N 44°10' E 028°39'0 0.0
2017-Nov-09 00:25N 44°10' E 028°39'0 0.0
2017-Nov-08 23:58N 44°10' E 028°39'0 0.0
2017-Nov-08 23:28N 44°10' E 028°39'0 0.0
2017-Nov-08 22:58N 44°10' E 028°39'0 0.0
2017-Nov-08 22:28N 44°10' E 028°39'0 0.0
2017-Nov-08 21:58N 44°10' E 028°39'0 0.0
2017-Nov-08 21:28N 44°10' E 028°39'0 0.0
2017-Nov-08 20:58N 44°10' E 028°39'0 0.0
2017-Nov-08 20:28N 44°10' E 028°39'0 0.0
2017-Nov-08 19:58N 44°10' E 028°39'0 0.0
2017-Nov-08 19:28N 44°10' E 028°39'0 0.0
2017-Nov-08 18:58N 44°10' E 028°39'0 0.0
2017-Nov-08 18:28N 44°10' E 028°39'0 0.0
2017-Nov-08 17:58N 44°10' E 028°39'0 0.0
2017-Nov-08 17:28N 44°10' E 028°39'0 0.0
2017-Nov-08 16:58N 44°10' E 028°39'0 0.0
2017-Nov-08 16:28N 44°10' E 028°39'0 0.0
2017-Nov-08 15:55N 44°10' E 028°39'0 0.0
2017-Nov-08 15:25N 44°10' E 028°39'0 0.0
2017-Nov-08 14:54N 44°10' E 028°39'0 0.0
2017-Nov-08 14:27N 44°10' E 028°39'0 0.0
2017-Nov-08 14:00N 44°10' E 028°39'0 0.0
2017-Nov-08 13:30N 44°10' E 028°39'0 0.0
2017-Nov-08 13:00N 44°10' E 028°39'0 0.0
2017-Nov-08 12:30N 44°10' E 028°39'0 0.0
2017-Nov-08 12:00N 44°10' E 028°39'0 0.0
2017-Nov-08 11:30N 44°10' E 028°39'0 0.0
2017-Nov-08 11:00N 44°10' E 028°39'0 0.0
2017-Nov-08 10:30N 44°10' E 028°39'0 0.0
2017-Nov-08 10:00N 44°10' E 028°39'0 0.0
2017-Nov-08 09:30N 44°10' E 028°39'0 0.0
2017-Nov-08 09:00N 44°10' E 028°39'0 0.0
2017-Nov-08 08:27N 44°10' E 028°39'0 0.0
2017-Nov-08 08:00N 44°10' E 028°39'0 0.0
2017-Nov-08 07:30N 44°10' E 028°39'0 0.0
2017-Nov-08 07:00N 44°10' E 028°39'0 0.0
2017-Nov-08 06:30N 44°10' E 028°39'0 0.0
2017-Nov-08 06:00N 44°10' E 028°39'0 0.0
2017-Nov-08 05:27N 44°10' E 028°39'0 0.0
2017-Nov-08 05:00N 44°10' E 028°39'0 0.0
2017-Nov-08 04:27N 44°10' E 028°39'0 0.0
2017-Nov-08 04:00N 44°10' E 028°39'0 0.0
2017-Nov-08 03:30N 44°10' E 028°39'0 0.0
2017-Nov-08 03:00N 44°10' E 028°39'0 0.0
2017-Nov-08 02:30N 44°10' E 028°39'0 0.0
2017-Nov-08 02:00N 44°10' E 028°39'0 0.0
2017-Nov-08 01:30N 44°10' E 028°39'0 0.0
2017-Nov-08 01:00N 44°10' E 028°39'0 0.0
2017-Nov-08 00:30N 44°10' E 028°39'0 0.0
2017-Nov-08 00:00N 44°10' E 028°39'0 0.0
2017-Nov-07 23:30N 44°10' E 028°39'0 0.0
2017-Nov-07 23:00N 44°10' E 028°39'0 0.0
2017-Nov-07 22:30N 44°10' E 028°39'0 0.0
2017-Nov-07 22:00N 44°10' E 028°39'0 0.0
2017-Nov-07 21:24N 44°10' E 028°39'0 0.0
2017-Nov-07 20:57N 44°10' E 028°39'0 0.0
2017-Nov-07 20:30N 44°10' E 028°39'0 0.0
2017-Nov-07 20:00N 44°10' E 028°39'0 0.0
2017-Nov-07 19:30N 44°10' E 028°39'0 0.0
2017-Nov-07 18:57N 44°10' E 028°39'0 0.0
2017-Nov-07 18:30N 44°10' E 028°39'0 0.0
2017-Nov-07 18:00N 44°10' E 028°39'0 0.0
2017-Nov-07 17:30N 44°10' E 028°39'  

Dump ship's entire track history